Aeroporto :
LOGIN :

Iscrizione | Disclaimer

   EN    FR    IT 

 










Sommario :    VFR   VFR Marginale   IFR   IFR Intensivo   IFR Molto Intensivo
Visibilità : 
Base nubi : 
>= 8 km
>= 3000ft
5 / 8 km
1000 / 3000 ft
1500m / 5 km
500 / 1000 ft
800 / 1500m
200 / 500 ft
< 800m
< 200 ft
Simboli :   Temporali  Nebbia  Neve Forte  Precipitazioni Forti  Vento > 20 kt
SIGMETs :   Varie  Temporali  Ghiacco  Turbolenza  Onda orograficha  Ceneri Vulcaniche






- Altitudine del aeroporto : 1455 ft


ETIH - Hohenfels Army Air Field

ULTIMO METAR :
  • 262356Z AUTO 00000KT 4000 BR FEW001 BKN085 M03/M04 A3007 RMK AO2 SLP209 T10271038 11011 21029 55005 $

METARs OBSOLETI :
  • 262346Z AUTO 00000KT 3600 BR SCT085 M03/M04 A3007 RMK AO2 VIS 2600V3600 SLP209 $
  • 262306Z AUTO 00000KT 3000 BR CLR M02/M03 A3007 RMK AO2 SLP209 $
  • 262256Z AUTO 00000KT 2600 BR CLR M02/M03 A3008 RMK AO2 VIS 2600V4400 SLP212 T10231034 400381029 $
  • 262246Z AUTO 00000KT 4400 BR CLR M02/M04 A3008 RMK AO2 SLP212 $
  • 262236Z AUTO 00000KT 5000 BR CLR M03/M04 A3008 RMK AO2 SLP212 $
  • 262206Z AUTO 00000KT 3200 BR CLR M03/M04 A3007 RMK AO2 VIS 2400V3200 SLP211 $
  • 262141Z AUTO 00000KT 2800 BR CLR M02/M04 A3008 RMK AO2 VIS 2800V4400 SLP215 $
  • 262136Z AUTO 00000KT 3600 BR CLR M02/M04 A3008 RMK AO2 VIS 3600V5000 SLP215 $
  • 262116Z AUTO 26003KT 3200 BR CLR M02/M03 A3008 RMK AO2 SLP215 $

Previsioni scadute.



MetMap, La meteo Aeronautica in un colpo d'occhio ! - Copyright ORBIFLY Dicembre 2007 - Disclaimer

ORBIFLY MET'MAP TEAM :

Programmazione e sviluppo : Alexandra Zaïnal
Concezione : Baudouin d'Aumeries
Aiuto per la programmazione : Marc-Olivier Méhu
Supporto tecnico e logistico : Manuel Goepfert
Aiuto per la traduzione : Arnaldo La Scala

Contatto : metmap@orbifly.com




FONTI E CREDITI :

   NOAA